sensor_id;sensor_type;location;lat;lon;timestamp;P1;durP1;ratioP1;P2;durP2;ratioP2
17686;SDS011;8962;52.538;13.266;2023-12-20T00:00:34;10.85;;;7.88;;
17686;SDS011;8962;52.538;13.266;2023-12-20T00:03:03;11.52;;;8.48;;
17686;SDS011;8962;52.538;13.266;2023-12-20T00:05:30;10.63;;;7.95;;
17686;SDS011;8962;52.538;13.266;2023-12-20T00:07:58;11.60;;;8.18;;
17686;SDS011;8962;52.538;13.266;2023-12-20T00:10:25;11.05;;;8.32;;
17686;SDS011;8962;52.538;13.266;2023-12-20T00:12:53;11.27;;;7.82;;
17686;SDS011;8962;52.538;13.266;2023-12-20T00:15:21;10.40;;;7.63;;
17686;SDS011;8962;52.538;13.266;2023-12-20T00:17:48;11.75;;;8.18;;
17686;SDS011;8962;52.538;13.266;2023-12-20T00:20:15;11.50;;;8.20;;
17686;SDS011;8962;52.538;13.266;2023-12-20T00:22:42;10.25;;;7.75;;
17686;SDS011;8962;52.538;13.266;2023-12-20T00:25:09;11.35;;;8.30;;
17686;SDS011;8962;52.538;13.266;2023-12-20T00:27:36;10.80;;;7.88;;
17686;SDS011;8962;52.538;13.266;2023-12-20T00:30:04;11.85;;;7.85;;
17686;SDS011;8962;52.538;13.266;2023-12-20T00:32:34;11.18;;;8.30;;
17686;SDS011;8962;52.538;13.266;2023-12-20T00:35:01;11.38;;;7.88;;
17686;SDS011;8962;52.538;13.266;2023-12-20T00:37:29;9.80;;;7.53;;
17686;SDS011;8962;52.538;13.266;2023-12-20T00:39:56;10.32;;;7.97;;
17686;SDS011;8962;52.538;13.266;2023-12-20T00:42:23;11.05;;;8.18;;
17686;SDS011;8962;52.538;13.266;2023-12-20T00:44:51;11.52;;;7.72;;
17686;SDS011;8962;52.538;13.266;2023-12-20T00:47:18;10.32;;;7.68;;
17686;SDS011;8962;52.538;13.266;2023-12-20T00:49:46;12.02;;;7.95;;
17686;SDS011;8962;52.538;13.266;2023-12-20T00:52:13;11.52;;;8.45;;
17686;SDS011;8962;52.538;13.266;2023-12-20T00:54:42;10.13;;;7.72;;
17686;SDS011;8962;52.538;13.266;2023-12-20T00:57:09;11.55;;;8.55;;
17686;SDS011;8962;52.538;13.266;2023-12-20T00:59:36;10.88;;;7.72;;
17686;SDS011;8962;52.538;13.266;2023-12-20T01:02:03;11.52;;;8.40;;
17686;SDS011;8962;52.538;13.266;2023-12-20T01:04:30;10.88;;;8.30;;
17686;SDS011;8962;52.538;13.266;2023-12-20T01:06:59;10.85;;;7.65;;
17686;SDS011;8962;52.538;13.266;2023-12-20T01:09:26;11.07;;;8.02;;
17686;SDS011;8962;52.538;13.266;2023-12-20T01:11:53;11.00;;;8.35;;
17686;SDS011;8962;52.538;13.266;2023-12-20T01:14:20;12.50;;;8.13;;
17686;SDS011;8962;52.538;13.266;2023-12-20T01:16:48;12.15;;;8.73;;
17686;SDS011;8962;52.538;13.266;2023-12-20T01:19:15;13.68;;;9.00;;
17686;SDS011;8962;52.538;13.266;2023-12-20T01:21:42;12.20;;;8.85;;
17686;SDS011;8962;52.538;13.266;2023-12-20T01:24:11;10.88;;;8.05;;
17686;SDS011;8962;52.538;13.266;2023-12-20T01:26:38;12.23;;;8.48;;
17686;SDS011;8962;52.538;13.266;2023-12-20T01:29:05;9.30;;;6.80;;
17686;SDS011;8962;52.538;13.266;2023-12-20T01:31:32;9.18;;;6.82;;
17686;SDS011;8962;52.538;13.266;2023-12-20T01:33:59;9.63;;;7.50;;
17686;SDS011;8962;52.538;13.266;2023-12-20T01:36:26;9.65;;;7.18;;
17686;SDS011;8962;52.538;13.266;2023-12-20T01:38:54;8.52;;;6.65;;
17686;SDS011;8962;52.538;13.266;2023-12-20T01:41:23;9.45;;;6.88;;
17686;SDS011;8962;52.538;13.266;2023-12-20T01:43:50;9.35;;;6.70;;
17686;SDS011;8962;52.538;13.266;2023-12-20T01:46:18;10.25;;;7.50;;
17686;SDS011;8962;52.538;13.266;2023-12-20T01:48:46;9.02;;;6.90;;
17686;SDS011;8962;52.538;13.266;2023-12-20T01:51:17;10.45;;;7.47;;
17686;SDS011;8962;52.538;13.266;2023-12-20T01:53:46;10.10;;;6.97;;
17686;SDS011;8962;52.538;13.266;2023-12-20T01:56:14;9.68;;;6.72;;
17686;SDS011;8962;52.538;13.266;2023-12-20T01:58:44;8.93;;;6.07;;
17686;SDS011;8962;52.538;13.266;2023-12-20T02:01:12;6.35;;;4.63;;
17686;SDS011;8962;52.538;13.266;2023-12-20T02:03:40;8.30;;;4.57;;
17686;SDS011;8962;52.538;13.266;2023-12-20T02:06:10;7.72;;;4.40;;
17686;SDS011;8962;52.538;13.266;2023-12-20T02:08:38;5.50;;;4.13;;
17686;SDS011;8962;52.538;13.266;2023-12-20T02:11:05;7.13;;;5.20;;
17686;SDS011;8962;52.538;13.266;2023-12-20T02:13:33;7.65;;;5.35;;
17686;SDS011;8962;52.538;13.266;2023-12-20T02:16:01;8.07;;;5.60;;
17686;SDS011;8962;52.538;13.266;2023-12-20T02:18:29;7.78;;;5.47;;
17686;SDS011;8962;52.538;13.266;2023-12-20T02:20:56;6.72;;;4.97;;
17686;SDS011;8962;52.538;13.266;2023-12-20T02:23:25;8.10;;;5.65;;
17686;SDS011;8962;52.538;13.266;2023-12-20T02:25:52;8.75;;;5.75;;
17686;SDS011;8962;52.538;13.266;2023-12-20T02:28:19;8.35;;;5.75;;
17686;SDS011;8962;52.538;13.266;2023-12-20T02:30:47;9.05;;;6.35;;
17686;SDS011;8962;52.538;13.266;2023-12-20T02:33:15;7.93;;;5.85;;
17686;SDS011;8962;52.538;13.266;2023-12-20T02:35:42;9.80;;;6.65;;
17686;SDS011;8962;52.538;13.266;2023-12-20T02:38:10;10.32;;;7.15;;
17686;SDS011;8962;52.538;13.266;2023-12-20T02:40:38;11.23;;;8.10;;
17686;SDS011;8962;52.538;13.266;2023-12-20T02:43:06;11.07;;;7.72;;
17686;SDS011;8962;52.538;13.266;2023-12-20T02:45:33;11.50;;;8.05;;
17686;SDS011;8962;52.538;13.266;2023-12-20T02:48:01;10.65;;;7.88;;
17686;SDS011;8962;52.538;13.266;2023-12-20T02:50:28;11.85;;;8.13;;
17686;SDS011;8962;52.538;13.266;2023-12-20T02:52:56;11.25;;;7.30;;
17686;SDS011;8962;52.538;13.266;2023-12-20T02:55:23;12.98;;;7.60;;
17686;SDS011;8962;52.538;13.266;2023-12-20T02:57:51;11.13;;;7.68;;
17686;SDS011;8962;52.538;13.266;2023-12-20T03:00:18;9.57;;;6.57;;
17686;SDS011;8962;52.538;13.266;2023-12-20T03:02:46;9.63;;;6.00;;
17686;SDS011;8962;52.538;13.266;2023-12-20T03:05:12;12.23;;;5.97;;
17686;SDS011;8962;52.538;13.266;2023-12-20T03:07:40;7.55;;;5.20;;
17686;SDS011;8962;52.538;13.266;2023-12-20T03:10:07;9.90;;;5.47;;
17686;SDS011;8962;52.538;13.266;2023-12-20T03:12:35;10.02;;;5.47;;
17686;SDS011;8962;52.538;13.266;2023-12-20T03:15:04;9.30;;;4.63;;
17686;SDS011;8962;52.538;13.266;2023-12-20T03:17:31;9.15;;;4.30;;
17686;SDS011;8962;52.538;13.266;2023-12-20T03:19:59;9.02;;;3.35;;
17686;SDS011;8962;52.538;13.266;2023-12-20T03:22:26;9.43;;;3.42;;
17686;SDS011;8962;52.538;13.266;2023-12-20T03:24:53;8.35;;;3.22;;
17686;SDS011;8962;52.538;13.266;2023-12-20T03:27:20;8.50;;;3.13;;
17686;SDS011;8962;52.538;13.266;2023-12-20T03:29:47;9.65;;;3.22;;
17686;SDS011;8962;52.538;13.266;2023-12-20T03:32:16;11.52;;;3.13;;
17686;SDS011;8962;52.538;13.266;2023-12-20T03:34:44;7.93;;;2.60;;
17686;SDS011;8962;52.538;13.266;2023-12-20T03:37:11;8.10;;;3.00;;
17686;SDS011;8962;52.538;13.266;2023-12-20T03:39:38;10.20;;;2.97;;
17686;SDS011;8962;52.538;13.266;2023-12-20T03:42:05;6.43;;;2.85;;
17686;SDS011;8962;52.538;13.266;2023-12-20T03:44:33;7.75;;;2.45;;
17686;SDS011;8962;52.538;13.266;2023-12-20T03:47:00;9.27;;;2.53;;
17686;SDS011;8962;52.538;13.266;2023-12-20T03:49:28;7.55;;;2.50;;
17686;SDS011;8962;52.538;13.266;2023-12-20T03:51:57;8.93;;;2.25;;
17686;SDS011;8962;52.538;13.266;2023-12-20T03:54:25;8.30;;;2.40;;
17686;SDS011;8962;52.538;13.266;2023-12-20T03:56:52;13.23;;;2.40;;
17686;SDS011;8962;52.538;13.266;2023-12-20T03:59:19;8.00;;;2.25;;
17686;SDS011;8962;52.538;13.266;2023-12-20T04:01:46;12.90;;;2.22;;
17686;SDS011;8962;52.538;13.266;2023-12-20T04:04:13;9.70;;;2.42;;
17686;SDS011;8962;52.538;13.266;2023-12-20T04:06:42;11.05;;;2.20;;
17686;SDS011;8962;52.538;13.266;2023-12-20T04:09:09;9.38;;;2.10;;
17686;SDS011;8962;52.538;13.266;2023-12-20T04:11:37;13.65;;;2.22;;
17686;SDS011;8962;52.538;13.266;2023-12-20T04:14:04;10.57;;;2.20;;
17686;SDS011;8962;52.538;13.266;2023-12-20T04:16:32;12.55;;;2.47;;
17686;SDS011;8962;52.538;13.266;2023-12-20T04:18:59;12.43;;;2.38;;
17686;SDS011;8962;52.538;13.266;2023-12-20T04:21:26;8.68;;;2.28;;
17686;SDS011;8962;52.538;13.266;2023-12-20T04:23:55;8.82;;;2.47;;
17686;SDS011;8962;52.538;13.266;2023-12-20T04:26:22;9.63;;;2.40;;
17686;SDS011;8962;52.538;13.266;2023-12-20T04:28:49;10.05;;;2.40;;
17686;SDS011;8962;52.538;13.266;2023-12-20T04:31:16;8.77;;;2.67;;
17686;SDS011;8962;52.538;13.266;2023-12-20T04:33:43;9.00;;;2.47;;
17686;SDS011;8962;52.538;13.266;2023-12-20T04:36:10;7.03;;;2.65;;
17686;SDS011;8962;52.538;13.266;2023-12-20T04:38:38;10.70;;;2.78;;
17686;SDS011;8962;52.538;13.266;2023-12-20T04:41:06;14.73;;;3.20;;
17686;SDS011;8962;52.538;13.266;2023-12-20T04:43:33;9.27;;;3.08;;
17686;SDS011;8962;52.538;13.266;2023-12-20T04:46:00;12.50;;;2.70;;
17686;SDS011;8962;52.538;13.266;2023-12-20T04:48:28;10.27;;;2.47;;
17686;SDS011;8962;52.538;13.266;2023-12-20T04:50:55;10.40;;;3.22;;
17686;SDS011;8962;52.538;13.266;2023-12-20T04:53:22;15.93;;;2.92;;
17686;SDS011;8962;52.538;13.266;2023-12-20T04:55:49;7.30;;;2.65;;
17686;SDS011;8962;52.538;13.266;2023-12-20T04:58:18;13.40;;;2.90;;
17686;SDS011;8962;52.538;13.266;2023-12-20T05:00:45;11.90;;;2.78;;
17686;SDS011;8962;52.538;13.266;2023-12-20T05:03:12;11.15;;;3.08;;
17686;SDS011;8962;52.538;13.266;2023-12-20T05:05:39;10.77;;;2.88;;
17686;SDS011;8962;52.538;13.266;2023-12-20T05:08:06;10.15;;;2.72;;
17686;SDS011;8962;52.538;13.266;2023-12-20T05:10:33;8.20;;;2.35;;
17686;SDS011;8962;52.538;13.266;2023-12-20T05:13:01;12.70;;;2.53;;
17686;SDS011;8962;52.538;13.266;2023-12-20T05:15:30;9.45;;;2.47;;
17686;SDS011;8962;52.538;13.266;2023-12-20T05:17:57;11.57;;;2.58;;
17686;SDS011;8962;52.538;13.266;2023-12-20T05:20:24;15.20;;;2.92;;
17686;SDS011;8962;52.538;13.266;2023-12-20T05:22:51;15.07;;;3.17;;
17686;SDS011;8962;52.538;13.266;2023-12-20T05:25:18;12.90;;;3.10;;
17686;SDS011;8962;52.538;13.266;2023-12-20T05:27:45;8.35;;;3.00;;
17686;SDS011;8962;52.538;13.266;2023-12-20T05:30:12;14.73;;;2.75;;
17686;SDS011;8962;52.538;13.266;2023-12-20T05:32:41;10.68;;;2.67;;
17686;SDS011;8962;52.538;13.266;2023-12-20T05:35:08;14.57;;;2.58;;
17686;SDS011;8962;52.538;13.266;2023-12-20T05:37:36;6.65;;;2.53;;
17686;SDS011;8962;52.538;13.266;2023-12-20T05:40:03;14.20;;;3.38;;
17686;SDS011;8962;52.538;13.266;2023-12-20T05:42:31;12.45;;;3.08;;
17686;SDS011;8962;52.538;13.266;2023-12-20T05:44:58;12.18;;;2.35;;
17686;SDS011;8962;52.538;13.266;2023-12-20T05:47:26;9.30;;;2.38;;
17686;SDS011;8962;52.538;13.266;2023-12-20T05:49:55;11.25;;;2.47;;
17686;SDS011;8962;52.538;13.266;2023-12-20T05:52:22;10.85;;;2.40;;
17686;SDS011;8962;52.538;13.266;2023-12-20T05:54:49;16.75;;;2.70;;
17686;SDS011;8962;52.538;13.266;2023-12-20T05:57:16;9.40;;;2.25;;
17686;SDS011;8962;52.538;13.266;2023-12-20T05:59:43;12.68;;;2.90;;
17686;SDS011;8962;52.538;13.266;2023-12-20T06:02:10;17.77;;;3.28;;
17686;SDS011;8962;52.538;13.266;2023-12-20T06:04:37;14.57;;;2.78;;
17686;SDS011;8962;52.538;13.266;2023-12-20T06:07:10;10.38;;;2.92;;
17686;SDS011;8962;52.538;13.266;2023-12-20T06:09:38;11.98;;;2.75;;
17686;SDS011;8962;52.538;13.266;2023-12-20T06:12:06;11.52;;;2.63;;
17686;SDS011;8962;52.538;13.266;2023-12-20T06:14:36;10.95;;;2.80;;
17686;SDS011;8962;52.538;13.266;2023-12-20T06:17:03;12.07;;;2.70;;
17686;SDS011;8962;52.538;13.266;2023-12-20T06:19:30;11.02;;;2.78;;
17686;SDS011;8962;52.538;13.266;2023-12-20T06:21:58;11.85;;;3.13;;
17686;SDS011;8962;52.538;13.266;2023-12-20T06:24:27;7.95;;;2.63;;
17686;SDS011;8962;52.538;13.266;2023-12-20T06:26:55;9.88;;;3.25;;
17686;SDS011;8962;52.538;13.266;2023-12-20T06:29:22;19.45;;;3.72;;
17686;SDS011;8962;52.538;13.266;2023-12-20T06:31:50;9.77;;;2.78;;
17686;SDS011;8962;52.538;13.266;2023-12-20T06:34:17;15.35;;;3.05;;
17686;SDS011;8962;52.538;13.266;2023-12-20T06:36:44;11.27;;;2.40;;
17686;SDS011;8962;52.538;13.266;2023-12-20T06:39:11;8.38;;;2.60;;
17686;SDS011;8962;52.538;13.266;2023-12-20T06:41:40;11.68;;;2.65;;
17686;SDS011;8962;52.538;13.266;2023-12-20T06:44:08;13.68;;;2.85;;
17686;SDS011;8962;52.538;13.266;2023-12-20T06:46:35;6.72;;;2.30;;
17686;SDS011;8962;52.538;13.266;2023-12-20T06:49:02;9.15;;;2.60;;
17686;SDS011;8962;52.538;13.266;2023-12-20T06:51:29;9.85;;;2.58;;
17686;SDS011;8962;52.538;13.266;2023-12-20T06:53:57;6.80;;;2.10;;
17686;SDS011;8962;52.538;13.266;2023-12-20T06:56:25;18.42;;;3.13;;
17686;SDS011;8962;52.538;13.266;2023-12-20T06:58:54;12.02;;;2.60;;
17686;SDS011;8962;52.538;13.266;2023-12-20T07:01:21;12.82;;;2.50;;
17686;SDS011;8962;52.538;13.266;2023-12-20T07:03:48;9.27;;;2.33;;
17686;SDS011;8962;52.538;13.266;2023-12-20T07:06:15;12.38;;;2.83;;
17686;SDS011;8962;52.538;13.266;2023-12-20T07:08:42;8.40;;;2.70;;
17686;SDS011;8962;52.538;13.266;2023-12-20T07:11:09;11.52;;;3.15;;
17686;SDS011;8962;52.538;13.266;2023-12-20T07:13:37;10.95;;;3.05;;
17686;SDS011;8962;52.538;13.266;2023-12-20T07:16:05;14.50;;;2.85;;
17686;SDS011;8962;52.538;13.266;2023-12-20T07:18:33;10.35;;;2.42;;
17686;SDS011;8962;52.538;13.266;2023-12-20T07:21:01;9.85;;;2.95;;
17686;SDS011;8962;52.538;13.266;2023-12-20T07:23:28;12.98;;;2.75;;
17686;SDS011;8962;52.538;13.266;2023-12-20T07:25:55;12.90;;;2.58;;
17686;SDS011;8962;52.538;13.266;2023-12-20T07:28:22;9.60;;;2.65;;
17686;SDS011;8962;52.538;13.266;2023-12-20T07:30:50;12.18;;;2.72;;
17686;SDS011;8962;52.538;13.266;2023-12-20T07:33:18;17.10;;;3.67;;
17686;SDS011;8962;52.538;13.266;2023-12-20T07:35:46;12.32;;;2.88;;
17686;SDS011;8962;52.538;13.266;2023-12-20T07:38:13;10.00;;;2.50;;
17686;SDS011;8962;52.538;13.266;2023-12-20T07:40:40;8.77;;;2.80;;
17686;SDS011;8962;52.538;13.266;2023-12-20T07:43:07;11.35;;;2.60;;
17686;SDS011;8962;52.538;13.266;2023-12-20T07:45:35;12.25;;;2.25;;
17686;SDS011;8962;52.538;13.266;2023-12-20T07:48:03;9.90;;;2.67;;
17686;SDS011;8962;52.538;13.266;2023-12-20T07:50:33;10.40;;;2.47;;
17686;SDS011;8962;52.538;13.266;2023-12-20T07:53:00;11.25;;;2.08;;
17686;SDS011;8962;52.538;13.266;2023-12-20T07:55:28;9.52;;;2.90;;
17686;SDS011;8962;52.538;13.266;2023-12-20T07:57:57;11.93;;;2.95;;
17686;SDS011;8962;52.538;13.266;2023-12-20T08:00:24;9.00;;;2.58;;
17686;SDS011;8962;52.538;13.266;2023-12-20T08:02:51;13.65;;;3.00;;
17686;SDS011;8962;52.538;13.266;2023-12-20T08:05:19;15.75;;;2.30;;
17686;SDS011;8962;52.538;13.266;2023-12-20T08:07:47;8.82;;;2.28;;
17686;SDS011;8962;52.538;13.266;2023-12-20T08:10:15;9.77;;;2.42;;
17686;SDS011;8962;52.538;13.266;2023-12-20T08:12:44;10.07;;;2.05;;
17686;SDS011;8962;52.538;13.266;2023-12-20T08:15:11;11.32;;;2.38;;
17686;SDS011;8962;52.538;13.266;2023-12-20T08:17:39;9.55;;;2.30;;
17686;SDS011;8962;52.538;13.266;2023-12-20T08:20:08;9.50;;;2.60;;
17686;SDS011;8962;52.538;13.266;2023-12-20T08:22:35;11.48;;;2.50;;
17686;SDS011;8962;52.538;13.266;2023-12-20T08:25:04;10.00;;;2.60;;
17686;SDS011;8962;52.538;13.266;2023-12-20T08:27:32;10.05;;;2.65;;
17686;SDS011;8962;52.538;13.266;2023-12-20T08:29:59;14.07;;;2.50;;
17686;SDS011;8962;52.538;13.266;2023-12-20T08:32:26;12.43;;;2.40;;
17686;SDS011;8962;52.538;13.266;2023-12-20T08:34:53;13.20;;;2.53;;
17686;SDS011;8962;52.538;13.266;2023-12-20T08:37:21;6.38;;;2.28;;
17686;SDS011;8962;52.538;13.266;2023-12-20T08:39:48;12.38;;;2.80;;
17686;SDS011;8962;52.538;13.266;2023-12-20T08:42:16;9.82;;;2.10;;
17686;SDS011;8962;52.538;13.266;2023-12-20T08:44:44;6.68;;;2.22;;
17686;SDS011;8962;52.538;13.266;2023-12-20T08:47:12;15.57;;;2.70;;
17686;SDS011;8962;52.538;13.266;2023-12-20T08:49:41;7.43;;;1.85;;
17686;SDS011;8962;52.538;13.266;2023-12-20T08:52:08;9.75;;;2.15;;
17686;SDS011;8962;52.538;13.266;2023-12-20T08:54:35;9.57;;;2.10;;
17686;SDS011;8962;52.538;13.266;2023-12-20T08:57:03;5.18;;;1.92;;
17686;SDS011;8962;52.538;13.266;2023-12-20T08:59:33;13.95;;;2.85;;
17686;SDS011;8962;52.538;13.266;2023-12-20T09:02:00;10.68;;;2.28;;
17686;SDS011;8962;52.538;13.266;2023-12-20T09:04:27;12.57;;;2.17;;
17686;SDS011;8962;52.538;13.266;2023-12-20T09:06:55;11.43;;;2.38;;
17686;SDS011;8962;52.538;13.266;2023-12-20T09:09:22;12.98;;;2.40;;
17686;SDS011;8962;52.538;13.266;2023-12-20T09:11:49;11.45;;;2.47;;
17686;SDS011;8962;52.538;13.266;2023-12-20T09:14:16;5.90;;;2.15;;
17686;SDS011;8962;52.538;13.266;2023-12-20T09:16:45;11.50;;;2.33;;
17686;SDS011;8962;52.538;13.266;2023-12-20T09:19:13;11.60;;;2.28;;
17686;SDS011;8962;52.538;13.266;2023-12-20T09:21:41;13.45;;;2.70;;
17686;SDS011;8962;52.538;13.266;2023-12-20T09:24:08;10.00;;;2.97;;
17686;SDS011;8962;52.538;13.266;2023-12-20T09:26:35;13.10;;;2.85;;
17686;SDS011;8962;52.538;13.266;2023-12-20T09:29:02;11.75;;;2.53;;
17686;SDS011;8962;52.538;13.266;2023-12-20T09:31:29;13.90;;;3.45;;
17686;SDS011;8962;52.538;13.266;2023-12-20T09:33:58;9.27;;;2.10;;
17686;SDS011;8962;52.538;13.266;2023-12-20T09:36:25;11.15;;;2.75;;
17686;SDS011;8962;52.538;13.266;2023-12-20T09:38:53;11.38;;;2.83;;
17686;SDS011;8962;52.538;13.266;2023-12-20T09:41:20;10.38;;;2.58;;
17686;SDS011;8962;52.538;13.266;2023-12-20T09:43:47;8.60;;;2.30;;
17686;SDS011;8962;52.538;13.266;2023-12-20T09:46:17;9.85;;;2.13;;
17686;SDS011;8962;52.538;13.266;2023-12-20T09:48:53;11.75;;;2.10;;
17686;SDS011;8962;52.538;13.266;2023-12-20T09:51:22;9.13;;;2.30;;
17686;SDS011;8962;52.538;13.266;2023-12-20T09:53:50;11.30;;;2.50;;
17686;SDS011;8962;52.538;13.266;2023-12-20T09:56:20;13.07;;;2.47;;
17686;SDS011;8962;52.538;13.266;2023-12-20T09:58:48;10.50;;;2.35;;
17686;SDS011;8962;52.538;13.266;2023-12-20T10:01:15;11.68;;;2.65;;
17686;SDS011;8962;52.538;13.266;2023-12-20T10:03:43;9.13;;;2.33;;
17686;SDS011;8962;52.538;13.266;2023-12-20T10:06:11;12.15;;;2.42;;
17686;SDS011;8962;52.538;13.266;2023-12-20T10:08:40;11.85;;;2.60;;
17686;SDS011;8962;52.538;13.266;2023-12-20T10:11:07;13.60;;;2.80;;
17686;SDS011;8962;52.538;13.266;2023-12-20T10:13:36;12.70;;;2.90;;
17686;SDS011;8962;52.538;13.266;2023-12-20T10:16:06;11.30;;;2.17;;
17686;SDS011;8962;52.538;13.266;2023-12-20T10:18:34;10.77;;;2.13;;
17686;SDS011;8962;52.538;13.266;2023-12-20T10:21:01;11.90;;;2.25;;
17686;SDS011;8962;52.538;13.266;2023-12-20T10:23:29;12.55;;;2.33;;
17686;SDS011;8962;52.538;13.266;2023-12-20T10:25:58;6.35;;;2.10;;
17686;SDS011;8962;52.538;13.266;2023-12-20T10:28:26;11.02;;;2.88;;
17686;SDS011;8962;52.538;13.266;2023-12-20T10:30:59;13.75;;;3.28;;
17686;SDS011;8962;52.538;13.266;2023-12-20T10:33:27;9.52;;;3.30;;
17686;SDS011;8962;52.538;13.266;2023-12-20T10:35:55;11.73;;;2.83;;
17686;SDS011;8962;52.538;13.266;2023-12-20T10:38:23;17.60;;;3.33;;
17686;SDS011;8962;52.538;13.266;2023-12-20T10:40:51;13.45;;;3.17;;
17686;SDS011;8962;52.538;13.266;2023-12-20T10:43:22;12.30;;;2.88;;
17686;SDS011;8962;52.538;13.266;2023-12-20T10:45:51;12.27;;;2.30;;
17686;SDS011;8962;52.538;13.266;2023-12-20T10:48:19;18.65;;;3.20;;
17686;SDS011;8962;52.538;13.266;2023-12-20T10:50:54;9.95;;;2.20;;
17686;SDS011;8962;52.538;13.266;2023-12-20T10:53:22;12.30;;;2.80;;
17686;SDS011;8962;52.538;13.266;2023-12-20T10:55:51;9.48;;;2.53;;
17686;SDS011;8962;52.538;13.266;2023-12-20T10:58:23;10.65;;;2.22;;
17686;SDS011;8962;52.538;13.266;2023-12-20T11:00:53;10.90;;;2.50;;
17686;SDS011;8962;52.538;13.266;2023-12-20T11:03:26;9.52;;;2.28;;
17686;SDS011;8962;52.538;13.266;2023-12-20T11:05:58;12.57;;;2.88;;
17686;SDS011;8962;52.538;13.266;2023-12-20T11:08:32;11.77;;;2.97;;
17686;SDS011;8962;52.538;13.266;2023-12-20T11:11:04;11.80;;;3.33;;
17686;SDS011;8962;52.538;13.266;2023-12-20T11:13:37;8.82;;;2.30;;
17686;SDS011;8962;52.538;13.266;2023-12-20T11:16:11;13.05;;;2.92;;
17686;SDS011;8962;52.538;13.266;2023-12-20T11:18:40;12.25;;;2.60;;
17686;SDS011;8962;52.538;13.266;2023-12-20T11:21:08;9.57;;;2.70;;
17686;SDS011;8962;52.538;13.266;2023-12-20T11:23:39;10.75;;;2.75;;
17686;SDS011;8962;52.538;13.266;2023-12-20T11:26:09;11.57;;;2.97;;
17686;SDS011;8962;52.538;13.266;2023-12-20T11:28:37;10.52;;;2.53;;
17686;SDS011;8962;52.538;13.266;2023-12-20T11:31:05;11.50;;;2.58;;
17686;SDS011;8962;52.538;13.266;2023-12-20T11:33:36;11.70;;;2.88;;
17686;SDS011;8962;52.538;13.266;2023-12-20T11:36:07;14.27;;;2.85;;
17686;SDS011;8962;52.538;13.266;2023-12-20T11:38:48;10.95;;;2.95;;
17686;SDS011;8962;52.538;13.266;2023-12-20T11:41:22;9.88;;;2.75;;
17686;SDS011;8962;52.538;13.266;2023-12-20T11:43:51;10.52;;;3.00;;
17686;SDS011;8962;52.538;13.266;2023-12-20T11:46:20;9.60;;;2.90;;
17686;SDS011;8962;52.538;13.266;2023-12-20T11:48:48;10.82;;;2.58;;
17686;SDS011;8962;52.538;13.266;2023-12-20T11:51:16;8.40;;;2.47;;
17686;SDS011;8962;52.538;13.266;2023-12-20T11:53:44;11.98;;;3.00;;
17686;SDS011;8962;52.538;13.266;2023-12-20T11:56:11;13.55;;;2.70;;
17686;SDS011;8962;52.538;13.266;2023-12-20T11:58:38;9.45;;;2.50;;
17686;SDS011;8962;52.538;13.266;2023-12-20T12:01:08;8.52;;;2.40;;
17686;SDS011;8962;52.538;13.266;2023-12-20T12:03:35;15.48;;;2.60;;
17686;SDS011;8962;52.538;13.266;2023-12-20T12:06:02;12.48;;;2.53;;
17686;SDS011;8962;52.538;13.266;2023-12-20T12:08:30;9.95;;;2.30;;
17686;SDS011;8962;52.538;13.266;2023-12-20T12:10:57;14.68;;;3.25;;
17686;SDS011;8962;52.538;13.266;2023-12-20T12:13:25;11.93;;;2.72;;
17686;SDS011;8962;52.538;13.266;2023-12-20T12:15:53;8.65;;;2.47;;
17686;SDS011;8962;52.538;13.266;2023-12-20T12:18:22;10.32;;;2.40;;
17686;SDS011;8962;52.538;13.266;2023-12-20T12:20:49;11.45;;;2.40;;
17686;SDS011;8962;52.538;13.266;2023-12-20T12:23:25;11.27;;;2.70;;
17686;SDS011;8962;52.538;13.266;2023-12-20T12:25:53;7.70;;;2.45;;
17686;SDS011;8962;52.538;13.266;2023-12-20T12:28:25;9.27;;;2.47;;
17686;SDS011;8962;52.538;13.266;2023-12-20T12:30:57;6.68;;;2.45;;
17686;SDS011;8962;52.538;13.266;2023-12-20T12:33:26;7.78;;;2.50;;
17686;SDS011;8962;52.538;13.266;2023-12-20T12:35:56;10.90;;;2.95;;
17686;SDS011;8962;52.538;13.266;2023-12-20T12:38:25;12.10;;;3.08;;
17686;SDS011;8962;52.538;13.266;2023-12-20T12:40:52;8.40;;;2.75;;
17686;SDS011;8962;52.538;13.266;2023-12-20T12:43:21;9.38;;;2.75;;
17686;SDS011;8962;52.538;13.266;2023-12-20T12:45:49;8.18;;;2.83;;
17686;SDS011;8962;52.538;13.266;2023-12-20T12:48:16;7.38;;;2.65;;
17686;SDS011;8962;52.538;13.266;2023-12-20T12:50:45;12.57;;;2.95;;
17686;SDS011;8962;52.538;13.266;2023-12-20T12:53:12;13.07;;;2.90;;
17686;SDS011;8962;52.538;13.266;2023-12-20T12:55:39;10.02;;;3.17;;
17686;SDS011;8962;52.538;13.266;2023-12-20T12:58:06;10.77;;;3.35;;
17686;SDS011;8962;52.538;13.266;2023-12-20T13:00:33;9.07;;;2.92;;
17686;SDS011;8962;52.538;13.266;2023-12-20T13:03:01;10.77;;;3.45;;
17686;SDS011;8962;52.538;13.266;2023-12-20T13:05:29;15.40;;;4.18;;
17686;SDS011;8962;52.538;13.266;2023-12-20T13:07:58;11.98;;;3.67;;
17686;SDS011;8962;52.538;13.266;2023-12-20T13:10:26;13.30;;;3.63;;
17686;SDS011;8962;52.538;13.266;2023-12-20T13:12:53;13.70;;;3.90;;
17686;SDS011;8962;52.538;13.266;2023-12-20T13:15:20;11.00;;;4.40;;
17686;SDS011;8962;52.538;13.266;2023-12-20T13:17:47;9.25;;;3.40;;
17686;SDS011;8962;52.538;13.266;2023-12-20T13:20:15;8.90;;;2.40;;
17686;SDS011;8962;52.538;13.266;2023-12-20T13:22:43;4.90;;;1.60;;
17686;SDS011;8962;52.538;13.266;2023-12-20T13:25:15;3.35;;;1.65;;
17686;SDS011;8962;52.538;13.266;2023-12-20T13:27:42;6.38;;;1.70;;
17686;SDS011;8962;52.538;13.266;2023-12-20T13:30:09;6.05;;;1.85;;
17686;SDS011;8962;52.538;13.266;2023-12-20T13:32:37;5.80;;;1.88;;
17686;SDS011;8962;52.538;13.266;2023-12-20T13:35:04;4.95;;;1.60;;
17686;SDS011;8962;52.538;13.266;2023-12-20T13:37:32;2.80;;;1.45;;
17686;SDS011;8962;52.538;13.266;2023-12-20T13:40:00;3.10;;;1.42;;
17686;SDS011;8962;52.538;13.266;2023-12-20T13:42:30;4.45;;;1.48;;
17686;SDS011;8962;52.538;13.266;2023-12-20T13:44:57;2.70;;;1.30;;
17686;SDS011;8962;52.538;13.266;2023-12-20T13:47:24;4.28;;;1.20;;
17686;SDS011;8962;52.538;13.266;2023-12-20T13:49:52;1.90;;;1.10;;
17686;SDS011;8962;52.538;13.266;2023-12-20T13:52:19;3.50;;;1.63;;
17686;SDS011;8962;52.538;13.266;2023-12-20T13:54:46;2.47;;;1.40;;
17686;SDS011;8962;52.538;13.266;2023-12-20T13:57:13;5.88;;;2.00;;
17686;SDS011;8962;52.538;13.266;2023-12-20T13:59:42;10.75;;;2.20;;
17686;SDS011;8962;52.538;13.266;2023-12-20T14:02:10;6.57;;;1.75;;
17686;SDS011;8962;52.538;13.266;2023-12-20T14:04:37;5.57;;;1.88;;
17686;SDS011;8962;52.538;13.266;2023-12-20T14:07:06;5.82;;;1.35;;
17686;SDS011;8962;52.538;13.266;2023-12-20T14:09:33;3.88;;;1.20;;
17686;SDS011;8962;52.538;13.266;2023-12-20T14:12:00;4.20;;;1.35;;
17686;SDS011;8962;52.538;13.266;2023-12-20T14:14:27;5.60;;;1.50;;
17686;SDS011;8962;52.538;13.266;2023-12-20T14:16:56;3.50;;;1.73;;
17686;SDS011;8962;52.538;13.266;2023-12-20T14:19:23;2.20;;;1.10;;
17686;SDS011;8962;52.538;13.266;2023-12-20T14:21:51;2.55;;;1.05;;
17686;SDS011;8962;52.538;13.266;2023-12-20T14:24:18;2.60;;;1.10;;
17686;SDS011;8962;52.538;13.266;2023-12-20T14:26:45;2.72;;;1.15;;
17686;SDS011;8962;52.538;13.266;2023-12-20T14:29:13;1.23;;;0.70;;
17686;SDS011;8962;52.538;13.266;2023-12-20T14:31:40;1.90;;;1.00;;
17686;SDS011;8962;52.538;13.266;2023-12-20T14:34:08;3.80;;;1.10;;
17686;SDS011;8962;52.538;13.266;2023-12-20T14:36:36;2.95;;;1.10;;
17686;SDS011;8962;52.538;13.266;2023-12-20T14:39:03;1.70;;;0.90;;
17686;SDS011;8962;52.538;13.266;2023-12-20T14:41:31;1.98;;;1.10;;
17686;SDS011;8962;52.538;13.266;2023-12-20T14:43:58;5.38;;;1.20;;